Details From LSGG - Geneva
To LSZA - Lugano
Flight Number -
Tags generated
Created
Modified
Stats Distance 118 nm / 218 km
Max Altitude 9,000 ft / 2,743 m
Waypoints 3
Social Downloads 3
Likes 0
Share VATSIM

Download

Looking for another format? Having issues loading an existing format? Contact us
Advertisement - Login to hide

Notes

Basic altitude profile: - Ascent Rate: 2500ft/min - Ascent Speed: 250kts - Cruise Altitude: 35000ft - Cruise Speed: 420kts - Descent Rate: 1500ft/min - Descent Speed: 250kts

Route

LSGG SPR20 LSZA

ID Type Via Altitude Latitude Longitude Leg Dist Tot Dist Heading (true) Name
O LSGG APT - 0 ft / 0 m 46.23775˚ 6.10617˚ - 0 nm - Geneva
SPR20 FIX - 9,000 ft / 2,743 m 46.18944˚ 6.71083˚ 25 nm 25 nm 96° / 97° -
O LSZA APT - 0 ft / 0 m 46.00427˚ 8.91058˚ 92 nm 117 nm 96° / 98° Lugano

Altitude Profile

Advertisement - Login to hide

LSGG

Details ICAO LSGG (GVA)
Name Geneva
Region Switzerland
Timezone Europe/Zurich (UTC+1.0)
Stats Elevation 1,410 ft / 430 m (AMSL)
Location 46.237755° 6.106173°
Runways 2
Magnetic Variation 1.737° E

METAR

LSGG 150620Z 21008KT 9999 FEW015 SCT045 BKN190 03/00 Q1003 NOSIG

Decode

TAF

TAF TAF LSGG 150525Z 1506/1612 24015KT 9999 FEW030 SCT040 BKN050 TX07/1515Z TN04/1506Z TN00/1606Z TEMPO 1518/1612 4500 SHSNRA BKN012 PROB40 TEMPO 1522/1603 2000 SHSN VV008

Decode

Departure Runways

ID Width Length Bearing (true) Bearing (mag) Surface Threshold Offset Overrun Length
05 180 ft / 55 m 12,796 ft / 3,900 m 45.43° 43.69° Concrete 1,079 ft / 329 m 66 ft / 20 m
05L 98 ft / 30 m 2,701 ft / 823 m 45.44° 43.70° Grass 610 ft / 186 m 0 ft / 0 m
23 180 ft / 55 m 12,796 ft / 3,900 m 225.45° 223.71° Concrete 0 ft / 0 m 66 ft / 20 m
23R 98 ft / 30 m 2,701 ft / 823 m 225.45° 223.71° Grass 997 ft / 304 m 0 ft / 0 m

LSZA

Details ICAO LSZA (LUG)
Name Lugano
Region Switzerland
Timezone Europe/Zurich (UTC+1.0)
Stats Elevation 915 ft / 279 m (AMSL)
Location 46.004275° 8.910579°
Runways 1
Magnetic Variation 2.424° E

METAR

LSZA 150620Z VRB02KT 9999 SCT090 02/00 Q0999 NOSIG

Decode

TAF

Not found

Destination Runways

ID Width Length Bearing (true) Bearing (mag) Surface Threshold Offset Overrun Length
01 98 ft / 30 m 4,430 ft / 1,350 m 18.79° 16.37° Asphalt 361 ft / 110 m 0 ft / 0 m
19 98 ft / 30 m 4,430 ft / 1,350 m 198.79° 196.37° Asphalt 673 ft / 205 m 0 ft / 0 m

Approach Navaids

Runway Type Ident Frequency Range Bearing (true) Bearing (mag) Slope Elevation
01 Localiser ILU 111.50 MHz 18 nm / 33 km 18.79° 16.37° - 928 ft / 283 m (AMSL)
01 Glidescope ILU 111.50 MHz 10 nm / 19 km 19.99° 17.57° 6.00° 928 ft / 283 m (AMSL)
01 DME ILU 111.50 MHz 18 nm / 33 km - - - 928 ft / 283 m (AMSL)

Popular Alternatives